createdAt,value
2023-01-18T00:01:01.281Z,97011.41
2023-01-18T00:02:03.068Z,97010.06
2023-01-18T00:03:05.442Z,97012.88
2023-01-18T00:04:07.281Z,97008.09
2023-01-18T00:05:09.536Z,97019.97
2023-01-18T00:06:12.053Z,97015.75
2023-01-18T00:07:13.766Z,97014.00
2023-01-18T00:08:16.482Z,97013.19
2023-01-18T00:09:18.177Z,97016.50
2023-01-18T00:10:20.787Z,97012.25
2023-01-18T00:11:22.444Z,97012.34
2023-01-18T00:12:24.253Z,96970.88
2023-01-18T00:13:25.844Z,97016.78
2023-01-18T00:14:27.611Z,97018.63
2023-01-18T00:15:30.527Z,97004.34
2023-01-18T00:16:32.367Z,96991.22
2023-01-18T00:17:34.302Z,97017.94
2023-01-18T00:18:36.229Z,97009.47
2023-01-18T00:19:38.105Z,97016.44
2023-01-18T00:20:39.839Z,97016.44
2023-01-18T00:21:41.705Z,97016.28
2023-01-18T00:22:43.410Z,97015.44
2023-01-18T00:23:45.086Z,97017.25
2023-01-18T00:24:46.735Z,97015.38
2023-01-18T00:25:48.379Z,97023.09
2023-01-18T00:26:50.331Z,97020.44
2023-01-18T00:27:54.021Z,97023.00
2023-01-18T00:28:57.133Z,97023.94
2023-01-18T00:29:59.588Z,97025.66
2023-01-18T00:31:01.564Z,97029.38
2023-01-18T00:32:03.895Z,97034.44
2023-01-18T00:33:05.746Z,97026.66
2023-01-18T00:34:07.593Z,97030.06
2023-01-18T00:35:09.702Z,97039.50
2023-01-18T00:36:12.223Z,97027.50
2023-01-18T00:37:13.903Z,97026.72
2023-01-18T00:38:15.758Z,97029.31
2023-01-18T00:39:17.468Z,97033.53
2023-01-18T00:40:21.054Z,96986.84
2023-01-18T00:41:23.117Z,97036.84
2023-01-18T00:42:43.547Z,97029.22
2023-01-18T00:43:46.515Z,97026.72
2023-01-18T00:44:48.246Z,97029.22
2023-01-18T00:45:50.009Z,97031.78
2023-01-18T00:46:53.347Z,97022.25
2023-01-18T00:47:55.161Z,97035.88
2023-01-18T00:48:58.955Z,97027.25
2023-01-18T00:50:00.779Z,97024.59
2023-01-18T00:51:02.882Z,97029.53
2023-01-18T00:52:04.963Z,97021.81
2023-01-18T00:53:06.625Z,97029.66
2023-01-18T00:54:08.492Z,97025.34
2023-01-18T00:55:12.341Z,97026.94
2023-01-18T00:56:19.539Z,97052.59
2023-01-18T00:57:21.268Z,97018.38
2023-01-18T00:58:22.959Z,97023.53
2023-01-18T00:59:24.566Z,96977.84
2023-01-18T01:00:28.960Z,97019.94
2023-01-18T01:01:30.747Z,97029.28
2023-01-18T01:02:32.596Z,97038.69
2023-01-18T01:03:54.745Z,97029.28
2023-01-18T01:05:14.973Z,97031.88
2023-01-18T01:06:36.418Z,97026.94
2023-01-18T01:07:38.060Z,97026.44
2023-01-18T01:08:39.682Z,97024.75
2023-01-18T01:09:42.288Z,97023.75
2023-01-18T01:10:49.827Z,97036.56
2023-01-18T01:12:11.137Z,97029.59
2023-01-18T01:13:33.083Z,97024.75
2023-01-18T01:14:58.052Z,97031.25
2023-01-18T01:16:17.973Z,97032.00
2023-01-18T01:17:38.237Z,97034.53
2023-01-18T01:18:58.643Z,97030.13
2023-01-18T01:20:18.979Z,97031.78
2023-01-18T01:21:39.486Z,97036.78
2023-01-18T01:23:00.118Z,97033.59
2023-01-18T01:24:20.656Z,97041.09
2023-01-18T01:25:40.631Z,97041.84
2023-01-18T01:26:42.833Z,97041.84
2023-01-18T01:27:44.528Z,97044.41
2023-01-18T01:28:51.108Z,97048.59
2023-01-18T01:29:52.859Z,97046.09
2023-01-18T01:31:02.194Z,97053.06
2023-01-18T01:32:05.107Z,97051.56
2023-01-18T01:33:06.804Z,97049.03
2023-01-18T01:34:08.486Z,97080.91
2023-01-18T01:35:11.683Z,97056.09
2023-01-18T01:36:19.688Z,97051.84
2023-01-18T01:37:21.359Z,97054.38
2023-01-18T01:38:23.085Z,97056.09
2023-01-18T01:39:25.045Z,97055.25
2023-01-18T01:40:26.768Z,97057.75
2023-01-18T01:41:33.934Z,97012.03
2023-01-18T01:42:35.601Z,97057.69
2023-01-18T01:43:43.344Z,97063.50
2023-01-18T01:44:50.237Z,97063.44
2023-01-18T01:45:52.909Z,97011.66
2023-01-18T01:47:03.083Z,97061.00
2023-01-18T01:48:05.051Z,97067.00
2023-01-18T01:49:09.633Z,97053.66
2023-01-18T01:50:37.469Z,97070.94
2023-01-18T01:51:45.100Z,97079.25
2023-01-18T01:52:47.940Z,97071.75
2023-01-18T01:53:51.337Z,97069.41
2023-01-18T01:55:22.695Z,97073.97
2023-01-18T01:56:24.442Z,97082.72
2023-01-18T01:57:34.659Z,97088.41
2023-01-18T01:58:36.761Z,97085.06
2023-01-18T01:59:45.106Z,97087.03
2023-01-18T02:00:46.926Z,97087.03
2023-01-18T02:01:49.688Z,97087.16
2023-01-18T02:02:57.632Z,97088.84
2023-01-18T02:04:01.532Z,97092.25
2023-01-18T02:05:08.116Z,97095.50
2023-01-18T02:06:39.374Z,97093.63
2023-01-18T02:07:41.849Z,97105.88
2023-01-18T02:08:47.441Z,97099.38
2023-01-18T02:09:51.756Z,97101.13
2023-01-18T02:10:53.761Z,97096.13
2023-01-18T02:11:55.811Z,97107.94
2023-01-18T02:12:59.445Z,97097.78
2023-01-18T02:14:07.502Z,97074.47
2023-01-18T02:15:09.754Z,97102.88
2023-01-18T02:16:11.518Z,97101.94
2023-01-18T02:17:32.766Z,97107.94
2023-01-18T02:18:47.133Z,97107.94
2023-01-18T02:20:07.565Z,97111.47
2023-01-18T02:21:17.272Z,97108.91
2023-01-18T02:22:40.392Z,97117.47
2023-01-18T02:24:17.490Z,97113.00
2023-01-18T02:25:56.667Z,97113.00
2023-01-18T02:27:04.812Z,97121.50
2023-01-18T02:28:18.142Z,97127.44
2023-01-18T02:29:51.853Z,97123.00
2023-01-18T02:31:10.859Z,97120.34
2023-01-18T02:32:27.865Z,97124.53
2023-01-18T02:33:47.175Z,97123.44
2023-01-18T02:35:10.818Z,97126.78
2023-01-18T02:36:27.742Z,97130.91
2023-01-18T02:37:53.302Z,97132.41
2023-01-18T02:38:58.571Z,97117.06
2023-01-18T02:40:08.000Z,97134.84
2023-01-18T02:41:45.452Z,97140.03
2023-01-18T02:43:07.391Z,97135.13
2023-01-18T02:44:27.836Z,97134.44
2023-01-18T02:46:04.288Z,97134.50
2023-01-18T02:47:08.036Z,97136.19
2023-01-18T02:48:10.656Z,97143.06
2023-01-18T02:49:20.305Z,97140.56
2023-01-18T02:50:25.718Z,97144.97
2023-01-18T02:51:27.481Z,97140.72
2023-01-18T02:52:39.041Z,97149.19
2023-01-18T02:53:44.613Z,97147.53
2023-01-18T02:54:46.364Z,97148.59
2023-01-18T02:55:56.735Z,97150.41
2023-01-18T02:56:59.881Z,97145.25
2023-01-18T02:58:08.465Z,97162.38
2023-01-18T02:59:16.242Z,97186.41
2023-01-18T03:00:21.067Z,97163.25
2023-01-18T03:01:30.936Z,97160.69
2023-01-18T03:02:32.788Z,97164.81
2023-01-18T03:03:35.433Z,97163.88
2023-01-18T03:04:43.822Z,97162.16
2023-01-18T03:05:47.264Z,97164.63
2023-01-18T03:06:57.618Z,97168.75
2023-01-18T03:08:09.492Z,97168.75
2023-01-18T03:09:18.463Z,97193.31
2023-01-18T03:10:21.497Z,97171.78
2023-01-18T03:11:35.411Z,97175.88
2023-01-18T03:12:53.105Z,97171.66
2023-01-18T03:14:27.739Z,97175.88
2023-01-18T03:15:48.229Z,97172.47
2023-01-18T03:17:24.576Z,97173.38
2023-01-18T03:19:00.446Z,97175.09
2023-01-18T03:20:08.639Z,97176.25
2023-01-18T03:21:10.558Z,97178.22
2023-01-18T03:22:12.246Z,97178.00
2023-01-18T03:23:38.128Z,97174.66
2023-01-18T03:24:41.403Z,97188.06
2023-01-18T03:25:46.142Z,97144.66
2023-01-18T03:26:53.508Z,97198.22
2023-01-18T03:28:16.359Z,97195.66
2023-01-18T03:29:39.321Z,97193.88
2023-01-18T03:31:00.793Z,97192.25
2023-01-18T03:32:29.917Z,97195.56
2023-01-18T03:33:45.936Z,97203.16
2023-01-18T03:35:03.524Z,97203.16
2023-01-18T03:36:10.219Z,97203.06
2023-01-18T03:37:16.903Z,97198.06
2023-01-18T03:38:20.471Z,97203.97
2023-01-18T03:39:47.595Z,97208.97
2023-01-18T03:40:50.367Z,97205.66
2023-01-18T03:41:57.431Z,97213.91
2023-01-18T03:43:14.942Z,97216.41
2023-01-18T03:44:23.032Z,97208.13
2023-01-18T03:45:28.759Z,97217.69
2023-01-18T03:46:32.845Z,97225.41
2023-01-18T03:47:35.365Z,97218.44
2023-01-18T03:48:37.380Z,97223.59
2023-01-18T03:49:39.243Z,97226.25
2023-01-18T03:50:49.965Z,97227.09
2023-01-18T03:51:54.523Z,97225.50
2023-01-18T03:53:02.552Z,97229.88
2023-01-18T03:54:16.402Z,97230.84
2023-01-18T03:55:25.406Z,97214.13
2023-01-18T03:56:40.850Z,97235.94
2023-01-18T03:57:50.805Z,97261.88
2023-01-18T03:58:57.589Z,97218.69
2023-01-18T04:00:01.528Z,97227.34
2023-01-18T04:01:04.462Z,97245.06
2023-01-18T04:02:07.581Z,97250.41
2023-01-18T04:03:09.276Z,97223.63
2023-01-18T04:04:11.357Z,97250.75
2023-01-18T04:05:13.440Z,97252.66
2023-01-18T04:06:15.222Z,97251.06
2023-01-18T04:07:16.893Z,97263.09
2023-01-18T04:08:21.972Z,97258.84
2023-01-18T04:09:25.214Z,97245.56
2023-01-18T04:10:27.065Z,97268.31
2023-01-18T04:11:28.870Z,97267.53
2023-01-18T04:12:31.540Z,97264.13
2023-01-18T04:13:33.239Z,97270.16
2023-01-18T04:14:34.882Z,97265.03
2023-01-18T04:15:36.592Z,97290.84
2023-01-18T04:16:38.220Z,97274.34
2023-01-18T04:17:40.078Z,97267.59
2023-01-18T04:18:41.933Z,97277.00
2023-01-18T04:19:43.733Z,97282.34
2023-01-18T04:20:45.365Z,97279.28
2023-01-18T04:21:47.073Z,97285.41
2023-01-18T04:22:53.262Z,97275.25
2023-01-18T04:23:54.921Z,97289.09
2023-01-18T04:24:56.659Z,97284.81
2023-01-18T04:25:58.470Z,97242.50
2023-01-18T04:27:00.113Z,97284.81
2023-01-18T04:28:01.774Z,97293.25
2023-01-18T04:29:03.938Z,97289.78
2023-01-18T04:30:06.368Z,97293.13
2023-01-18T04:31:08.394Z,97300.78
2023-01-18T04:32:10.097Z,97299.03
2023-01-18T04:33:11.887Z,97304.19
2023-01-18T04:34:13.561Z,97286.63
2023-01-18T04:35:15.605Z,97330.72
2023-01-18T04:36:18.415Z,97306.75
2023-01-18T04:37:20.198Z,97305.06
2023-01-18T04:38:22.886Z,97312.53
2023-01-18T04:39:25.160Z,97306.97
2023-01-18T04:40:26.905Z,97324.13
2023-01-18T04:41:28.735Z,97324.97
2023-01-18T04:42:30.548Z,97322.41
2023-01-18T04:43:32.315Z,97325.78
2023-01-18T04:44:33.937Z,97330.13
2023-01-18T04:45:35.640Z,97331.84
2023-01-18T04:46:40.305Z,97338.72
2023-01-18T04:47:42.894Z,97342.34
2023-01-18T04:48:44.726Z,97327.34
2023-01-18T04:49:46.328Z,97347.56
2023-01-18T04:50:48.536Z,97351.03
2023-01-18T04:51:50.315Z,97295.69
2023-01-18T04:52:52.141Z,97351.09
2023-01-18T04:53:54.175Z,97352.75
2023-01-18T04:54:55.808Z,97353.66
2023-01-18T04:55:58.797Z,97357.00
2023-01-18T04:57:00.555Z,97352.88
2023-01-18T04:58:02.524Z,97355.31
2023-01-18T04:59:04.535Z,97355.31
2023-01-18T05:00:08.846Z,97376.81
2023-01-18T05:01:14.353Z,97359.59
2023-01-18T05:02:16.309Z,97356.09
2023-01-18T05:03:18.041Z,97362.16
2023-01-18T05:04:20.222Z,97363.81
2023-01-18T05:05:22.231Z,97363.81
2023-01-18T05:06:24.629Z,97365.50
2023-01-18T05:07:27.697Z,97356.38
2023-01-18T05:08:29.616Z,97368.13
2023-01-18T05:09:31.449Z,97372.44
2023-01-18T05:10:33.756Z,97374.16
2023-01-18T05:11:35.313Z,97375.84
2023-01-18T05:12:37.474Z,97366.56
2023-01-18T05:13:40.690Z,97383.69
2023-01-18T05:14:42.493Z,97384.53
2023-01-18T05:15:44.153Z,97384.53
2023-01-18T05:16:45.864Z,97385.44
2023-01-18T05:17:47.598Z,97391.47
2023-01-18T05:18:49.585Z,97388.00
2023-01-18T05:19:51.597Z,97385.34
2023-01-18T05:20:53.472Z,97393.91
2023-01-18T05:21:55.108Z,97395.63
2023-01-18T05:22:57.326Z,97402.47
2023-01-18T05:23:59.625Z,97410.09
2023-01-18T05:25:02.008Z,97406.78
2023-01-18T05:26:04.796Z,97405.94
2023-01-18T05:27:06.499Z,97411.03
2023-01-18T05:28:09.314Z,97411.78
2023-01-18T05:29:11.004Z,97417.72
2023-01-18T05:30:12.831Z,97415.00
2023-01-18T05:31:16.215Z,97418.41
2023-01-18T05:32:17.921Z,97427.22
2023-01-18T05:33:21.391Z,97429.03
2023-01-18T05:34:23.090Z,97431.59
2023-01-18T05:35:24.773Z,97435.97
2023-01-18T05:36:30.630Z,97429.03
2023-01-18T05:38:01.313Z,97448.56
2023-01-18T05:39:03.144Z,97386.69
2023-01-18T05:40:05.313Z,97441.34
2023-01-18T05:41:07.343Z,97443.94
2023-01-18T05:42:09.020Z,97446.69
2023-01-18T05:43:11.116Z,97445.81
2023-01-18T05:44:13.194Z,97444.97
2023-01-18T05:45:15.002Z,97450.88
2023-01-18T05:46:16.881Z,97444.84
2023-01-18T05:47:18.652Z,97456.75
2023-01-18T05:48:21.094Z,97452.41
2023-01-18T05:49:23.067Z,97454.94
2023-01-18T05:50:24.821Z,97457.44
2023-01-18T05:51:26.688Z,97482.22
2023-01-18T05:52:28.560Z,97465.94
2023-01-18T05:53:30.199Z,97470.19
2023-01-18T05:54:31.777Z,97465.28
2023-01-18T05:55:33.670Z,97470.41
2023-01-18T05:56:35.392Z,97470.38
2023-01-18T05:57:37.188Z,97463.66
2023-01-18T05:58:38.983Z,97472.09
2023-01-18T05:59:40.787Z,97462.66
2023-01-18T06:00:42.598Z,97466.03
2023-01-18T06:01:44.284Z,97476.28
2023-01-18T06:02:46.056Z,97478.78
2023-01-18T06:03:47.726Z,97482.09
2023-01-18T06:04:49.369Z,97490.03
2023-01-18T06:05:51.590Z,97486.03
2023-01-18T06:06:53.937Z,97487.00
2023-01-18T06:07:55.533Z,97494.72
2023-01-18T06:08:57.350Z,97503.22
2023-01-18T06:09:59.202Z,97498.97
2023-01-18T06:11:01.133Z,97496.66
2023-01-18T06:12:03.474Z,97507.00
2023-01-18T06:13:05.882Z,97509.63
2023-01-18T06:14:07.518Z,97471.25
2023-01-18T06:15:10.742Z,97519.25
2023-01-18T06:16:12.440Z,97519.25
2023-01-18T06:17:14.317Z,97523.56
2023-01-18T06:18:16.031Z,97515.97
2023-01-18T06:19:17.946Z,97530.56
2023-01-18T06:20:19.748Z,97528.94
2023-01-18T06:21:21.575Z,97526.44
2023-01-18T06:22:24.050Z,97529.91
2023-01-18T06:23:25.871Z,97541.91
2023-01-18T06:24:27.670Z,97536.84
2023-01-18T06:25:29.365Z,97546.34
2023-01-18T06:26:31.299Z,97547.38
2023-01-18T06:27:32.975Z,97545.00
2023-01-18T06:28:34.648Z,97547.47
2023-01-18T06:29:36.281Z,97505.81
2023-01-18T06:30:38.966Z,97559.72
2023-01-18T06:31:41.302Z,97554.63
2023-01-18T06:32:43.094Z,97551.28
2023-01-18T06:33:45.130Z,97560.69
2023-01-18T06:34:46.762Z,97565.81
2023-01-18T06:35:49.031Z,97559.94
2023-01-18T06:36:50.687Z,97562.41
2023-01-18T06:37:52.524Z,97567.47
2023-01-18T06:38:54.204Z,97565.91
2023-01-18T06:39:55.885Z,97570.22
2023-01-18T06:40:57.843Z,97576.38
2023-01-18T06:41:59.640Z,97544.84
2023-01-18T06:43:01.693Z,97584.50
2023-01-18T06:44:03.912Z,97601.38
2023-01-18T06:45:06.107Z,97588.44
2023-01-18T06:46:09.387Z,97587.59
2023-01-18T06:47:11.180Z,97581.50
2023-01-18T06:48:13.039Z,97582.34
2023-01-18T06:49:15.037Z,97583.22
2023-01-18T06:50:17.388Z,97583.38
2023-01-18T06:51:20.509Z,97596.06
2023-01-18T06:52:22.592Z,97597.84
2023-01-18T06:53:24.962Z,97598.63
2023-01-18T06:54:26.634Z,97595.97
2023-01-18T06:55:28.352Z,97581.78
2023-01-18T06:56:30.634Z,97558.47
2023-01-18T06:57:32.411Z,97637.09
2023-01-18T06:58:34.585Z,97610.56
2023-01-18T06:59:36.274Z,97608.94
2023-01-18T07:00:38.828Z,97608.16
2023-01-18T07:01:40.598Z,97620.13
2023-01-18T07:02:42.473Z,97613.28
2023-01-18T07:03:44.243Z,97623.56
2023-01-18T07:04:46.109Z,97621.00
2023-01-18T07:05:48.130Z,97617.66
2023-01-18T07:06:49.822Z,97626.09
2023-01-18T07:07:51.584Z,97625.19
2023-01-18T07:08:53.302Z,97625.25
2023-01-18T07:09:55.060Z,97628.63
2023-01-18T07:10:57.626Z,97632.03
2023-01-18T07:11:59.943Z,97625.25
2023-01-18T07:13:01.827Z,97629.38
2023-01-18T07:14:03.726Z,97635.31
2023-01-18T07:15:20.832Z,97622.63
2023-01-18T07:16:23.673Z,97639.56
2023-01-18T07:17:25.530Z,97640.44
2023-01-18T07:18:28.091Z,97641.28
2023-01-18T07:19:30.013Z,97637.00
2023-01-18T07:20:32.011Z,97646.38
2023-01-18T07:21:33.899Z,97643.75
2023-01-18T07:22:35.615Z,97642.78
2023-01-18T07:23:39.626Z,97643.59
2023-01-18T07:24:41.376Z,97647.03
2023-01-18T07:25:43.026Z,97648.84
2023-01-18T07:26:44.734Z,97638.78
2023-01-18T07:27:48.958Z,97660.91
2023-01-18T07:28:51.354Z,97657.44
2023-01-18T07:29:52.983Z,97654.84
2023-01-18T07:30:54.690Z,97662.56
2023-01-18T07:31:56.583Z,97655.69
2023-01-18T07:32:59.285Z,97665.09
2023-01-18T07:34:01.492Z,97671.91
2023-01-18T07:35:03.309Z,97663.31
2023-01-18T07:36:07.482Z,97668.38
2023-01-18T07:37:09.482Z,97675.22
2023-01-18T07:38:11.108Z,97671.91
2023-01-18T07:39:12.896Z,97673.53
2023-01-18T07:40:15.468Z,97675.16
2023-01-18T07:41:17.790Z,97678.50
2023-01-18T07:42:19.454Z,97679.34
2023-01-18T07:43:21.194Z,97685.44
2023-01-18T07:44:23.283Z,97682.03
2023-01-18T07:45:25.291Z,97677.00
2023-01-18T07:46:27.594Z,97685.34
2023-01-18T07:47:29.266Z,97686.19
2023-01-18T07:48:31.830Z,97685.44
2023-01-18T07:49:33.666Z,97688.09
2023-01-18T07:50:35.531Z,97692.47
2023-01-18T07:51:37.401Z,97701.81
2023-01-18T07:52:40.504Z,97693.06
2023-01-18T07:53:42.298Z,97705.06
2023-01-18T07:54:43.964Z,97697.25
2023-01-18T07:55:46.093Z,97695.44
2023-01-18T07:56:47.744Z,97701.97
2023-01-18T07:57:49.617Z,97701.91
2023-01-18T07:58:52.671Z,97700.78
2023-01-18T07:59:54.951Z,97710.81
2023-01-18T08:01:09.950Z,97699.59
2023-01-18T08:02:13.304Z,97702.09
2023-01-18T08:03:17.319Z,97715.69
2023-01-18T08:04:19.121Z,97713.28
2023-01-18T08:05:24.095Z,97716.91
2023-01-18T08:06:27.366Z,97712.88
2023-01-18T08:07:32.635Z,97718.25
2023-01-18T08:08:36.507Z,97713.00
2023-01-18T08:09:38.347Z,97719.03
2023-01-18T08:10:41.094Z,97708.13
2023-01-18T08:11:42.883Z,97723.22
2023-01-18T08:12:44.562Z,97725.72
2023-01-18T08:13:48.976Z,97715.53
2023-01-18T08:14:50.843Z,97736.47
2023-01-18T08:15:53.547Z,97733.03
2023-01-18T08:16:55.578Z,97736.13
2023-01-18T08:17:57.388Z,97740.16
2023-01-18T08:18:59.081Z,97745.97
2023-01-18T08:20:00.753Z,97753.09
2023-01-18T08:21:02.490Z,97742.88
2023-01-18T08:22:04.242Z,97742.88
2023-01-18T08:23:06.206Z,97748.13
2023-01-18T08:24:08.084Z,97743.75
2023-01-18T08:25:10.099Z,97756.41
2023-01-18T08:26:13.742Z,97747.53
2023-01-18T08:27:16.952Z,97710.72
2023-01-18T08:28:19.074Z,97747.09
2023-01-18T08:29:20.831Z,97744.50
2023-01-18T08:30:23.738Z,97758.63
2023-01-18T08:31:25.844Z,97756.69
2023-01-18T08:32:27.970Z,97738.22
2023-01-18T08:33:29.952Z,97755.66
2023-01-18T08:34:31.652Z,97763.28
2023-01-18T08:35:39.277Z,97758.13
2023-01-18T08:36:41.049Z,97771.50
2023-01-18T08:37:44.536Z,97767.75
2023-01-18T08:38:49.481Z,97764.72
2023-01-18T08:39:51.275Z,97771.19
2023-01-18T08:40:52.997Z,97778.56
2023-01-18T08:41:54.871Z,97732.53
2023-01-18T08:43:01.592Z,97770.59
2023-01-18T08:44:03.362Z,97779.41
2023-01-18T08:45:05.658Z,97785.16
2023-01-18T08:46:07.409Z,97782.94
2023-01-18T08:47:09.270Z,97795.16
2023-01-18T08:48:11.562Z,97793.25
2023-01-18T08:49:13.889Z,97795.47
2023-01-18T08:50:15.826Z,97791.78
2023-01-18T08:51:22.876Z,97785.81
2023-01-18T08:52:24.721Z,97803.97
2023-01-18T08:53:26.393Z,97780.03
2023-01-18T08:54:28.572Z,97815.28
2023-01-18T08:55:30.833Z,97800.41
2023-01-18T08:56:33.402Z,97816.81
2023-01-18T08:57:35.228Z,97840.41
2023-01-18T08:58:37.002Z,97813.44
2023-01-18T08:59:38.751Z,97816.44
2023-01-18T09:00:40.534Z,97812.72
2023-01-18T09:01:42.359Z,97844.91
2023-01-18T09:02:44.285Z,97835.94
2023-01-18T09:03:48.012Z,97789.09
2023-01-18T09:04:49.836Z,97815.88
2023-01-18T09:05:51.588Z,97810.84
2023-01-18T09:06:53.366Z,97814.84
2023-01-18T09:07:55.903Z,97808.28
2023-01-18T09:08:59.750Z,97772.59
2023-01-18T09:10:01.443Z,97818.53
2023-01-18T09:11:09.718Z,97826.91
2023-01-18T09:12:12.837Z,97826.53
2023-01-18T09:13:14.739Z,97833.22
2023-01-18T09:14:16.930Z,97858.06
2023-01-18T09:15:19.240Z,97847.34
2023-01-18T09:16:22.580Z,97835.94
2023-01-18T09:17:24.688Z,97846.00
2023-01-18T09:18:26.640Z,97835.22
2023-01-18T09:19:28.500Z,97842.53
2023-01-18T09:20:30.332Z,97845.69
2023-01-18T09:21:32.514Z,97847.34
2023-01-18T09:22:34.194Z,97848.56
2023-01-18T09:23:40.351Z,97847.06
2023-01-18T09:24:43.095Z,97857.06
2023-01-18T09:25:44.970Z,97856.78
2023-01-18T09:26:51.044Z,97861.38
2023-01-18T09:27:52.841Z,97857.72
2023-01-18T09:28:54.612Z,97857.22
2023-01-18T09:29:56.334Z,97855.16
2023-01-18T09:31:06.071Z,97863.75
2023-01-18T09:32:10.786Z,97874.13
2023-01-18T09:33:12.549Z,97871.78
2023-01-18T09:34:19.262Z,97874.63
2023-01-18T09:35:21.555Z,97864.53
2023-01-18T09:36:26.845Z,97869.16
2023-01-18T09:37:28.791Z,97874.53
2023-01-18T09:38:31.877Z,97876.56
2023-01-18T09:39:50.446Z,97878.50
2023-01-18T09:40:54.140Z,97889.38
2023-01-18T09:42:02.024Z,97883.81
2023-01-18T09:43:03.874Z,97891.16
2023-01-18T09:44:16.776Z,97878.63
2023-01-18T09:45:29.260Z,97886.09
2023-01-18T09:46:35.984Z,97890.06
2023-01-18T09:47:46.377Z,97894.00
2023-01-18T09:49:00.350Z,97899.19
2023-01-18T09:50:18.705Z,97893.94
2023-01-18T09:51:28.126Z,97905.88
2023-01-18T09:52:32.490Z,97905.72
2023-01-18T09:53:43.167Z,97906.59
2023-01-18T09:54:55.085Z,97914.47
2023-01-18T09:56:07.529Z,97911.06
2023-01-18T09:57:15.451Z,97912.34
2023-01-18T09:58:55.968Z,97913.09
2023-01-18T09:59:59.597Z,97917.97
2023-01-18T10:01:06.742Z,97915.03
2023-01-18T10:02:41.164Z,97917.09
2023-01-18T10:03:50.518Z,97913.38
2023-01-18T10:05:02.093Z,97914.97
2023-01-18T10:06:11.247Z,97919.94
2023-01-18T10:07:16.973Z,97919.44
2023-01-18T10:08:25.493Z,97925.03
2023-01-18T10:09:30.911Z,97920.69
2023-01-18T10:10:38.340Z,97923.94
2023-01-18T10:11:48.282Z,97930.63
2023-01-18T10:13:20.350Z,97930.19
2023-01-18T10:14:48.980Z,97927.19
2023-01-18T10:15:51.025Z,97938.66
2023-01-18T10:17:00.378Z,97929.81
2023-01-18T10:18:02.338Z,97938.78
2023-01-18T10:19:04.309Z,97937.94
2023-01-18T10:20:35.706Z,97942.53
2023-01-18T10:22:07.815Z,97936.41
2023-01-18T10:23:31.349Z,97944.50
2023-01-18T10:24:45.656Z,97941.84
2023-01-18T10:25:53.502Z,97936.81
2023-01-18T10:27:10.866Z,97952.84
2023-01-18T10:28:48.904Z,97944.72
2023-01-18T10:30:06.160Z,97943.88
2023-01-18T10:31:32.613Z,97952.34
2023-01-18T10:32:36.292Z,97946.41
2023-01-18T10:33:42.129Z,97942.13
2023-01-18T10:34:51.513Z,97941.84
2023-01-18T10:36:00.841Z,97942.56
2023-01-18T10:37:17.337Z,97942.78
2023-01-18T10:38:23.154Z,97944.06
2023-01-18T10:39:49.613Z,97949.63
2023-01-18T10:41:02.310Z,97951.19
2023-01-18T10:42:13.573Z,97953.91
2023-01-18T10:43:17.366Z,97946.03
2023-01-18T10:44:19.067Z,97953.06
2023-01-18T10:45:25.110Z,97956.09
2023-01-18T10:46:28.177Z,97946.34
2023-01-18T10:47:29.981Z,97954.88
2023-01-18T10:48:34.174Z,97947.09
2023-01-18T10:49:44.127Z,97951.56
2023-01-18T10:50:53.382Z,97961.06
2023-01-18T10:51:55.323Z,97956.66
2023-01-18T10:52:57.457Z,97954.88
2023-01-18T10:53:59.909Z,97955.81
2023-01-18T10:55:07.530Z,97960.81
2023-01-18T10:56:22.931Z,97956.03
2023-01-18T10:57:30.573Z,97961.53
2023-01-18T10:58:41.399Z,97969.53
2023-01-18T10:59:43.292Z,97967.31
2023-01-18T11:00:54.236Z,97920.75
2023-01-18T11:01:58.517Z,97968.56
2023-01-18T11:03:03.736Z,97953.78
2023-01-18T11:04:18.367Z,97966.00
2023-01-18T11:05:40.298Z,97962.09
2023-01-18T11:06:53.834Z,97966.13
2023-01-18T11:08:21.566Z,97969.59
2023-01-18T11:09:55.739Z,97922.16
2023-01-18T11:10:59.135Z,97969.28
2023-01-18T11:12:42.238Z,97974.13
2023-01-18T11:13:47.184Z,97976.81
2023-01-18T11:14:48.945Z,97984.69
2023-01-18T11:16:21.412Z,97978.25
2023-01-18T11:17:23.281Z,97988.84
2023-01-18T11:18:24.910Z,97990.91
2023-01-18T11:19:26.746Z,97991.16
2023-01-18T11:20:48.110Z,97988.31
2023-01-18T11:21:51.993Z,97988.47
2023-01-18T11:23:16.128Z,97985.44
2023-01-18T11:24:24.820Z,97988.47
2023-01-18T11:25:34.791Z,97995.94
2023-01-18T11:27:10.684Z,97996.28
2023-01-18T11:28:29.366Z,97993.41
2023-01-18T11:29:42.683Z,97999.28
2023-01-18T11:30:52.375Z,97953.00
2023-01-18T11:31:55.413Z,97990.75
2023-01-18T11:33:00.417Z,97997.59
2023-01-18T11:34:06.345Z,98001.38
2023-01-18T11:35:10.119Z,98006.28
2023-01-18T11:36:11.901Z,98003.25
2023-01-18T11:37:34.577Z,98009.56
2023-01-18T11:38:36.277Z,98006.91
2023-01-18T11:39:38.159Z,98004.94
2023-01-18T11:40:39.870Z,98005.50
2023-01-18T11:41:41.511Z,98004.75
2023-01-18T11:42:43.340Z,98008.22
2023-01-18T11:44:13.818Z,98007.59
2023-01-18T11:45:27.132Z,97995.13
2023-01-18T11:46:36.783Z,98011.44
2023-01-18T11:48:13.113Z,98012.84
2023-01-18T11:49:30.089Z,98020.38
2023-01-18T11:50:55.227Z,98023.22
2023-01-18T11:52:05.218Z,98027.28
2023-01-18T11:53:21.492Z,98027.72
2023-01-18T11:54:34.612Z,98026.69
2023-01-18T11:55:56.257Z,98017.81
2023-01-18T11:57:03.191Z,98026.28
2023-01-18T11:58:17.034Z,98026.44
2023-01-18T11:59:35.161Z,98021.84
2023-01-18T12:00:51.799Z,97988.13
2023-01-18T12:02:12.063Z,98017.06
2023-01-18T12:03:34.086Z,98033.41
2023-01-18T12:05:03.022Z,98033.41
2023-01-18T12:06:18.075Z,98035.44
2023-01-18T12:07:47.892Z,98036.63
2023-01-18T12:08:52.543Z,98038.94
2023-01-18T12:09:56.496Z,98035.25
2023-01-18T12:11:15.967Z,98039.47
2023-01-18T12:13:08.431Z,98039.41
2023-01-18T12:14:43.929Z,98047.47
2023-01-18T12:15:54.638Z,98042.56
2023-01-18T12:17:45.815Z,98041.41
2023-01-18T12:19:10.870Z,98050.13
2023-01-18T12:20:20.078Z,98039.06
2023-01-18T12:21:42.345Z,98065.38
2023-01-18T12:22:46.795Z,98048.69
2023-01-18T12:24:27.229Z,98035.97
2023-01-18T12:26:11.805Z,98010.69
2023-01-18T12:27:28.245Z,98044.91
2023-01-18T12:28:57.415Z,98056.38
2023-01-18T12:30:02.099Z,98050.28
2023-01-18T12:31:13.480Z,98038.19
2023-01-18T12:32:36.283Z,98050.00
2023-01-18T12:33:44.262Z,98055.75
2023-01-18T12:34:58.492Z,98053.41
2023-01-18T12:36:18.686Z,98062.56
2023-01-18T12:37:38.391Z,98060.41
2023-01-18T12:38:54.603Z,98021.44
2023-01-18T12:39:59.320Z,98063.47
2023-01-18T12:41:12.714Z,98063.38
2023-01-18T12:42:26.461Z,98069.78
2023-01-18T12:43:49.732Z,98061.72
2023-01-18T12:45:17.926Z,98056.59
2023-01-18T12:46:28.733Z,98093.69
2023-01-18T12:47:39.712Z,98073.84
2023-01-18T12:49:04.757Z,98068.69
2023-01-18T12:50:24.558Z,98077.75
2023-01-18T12:51:32.445Z,98059.06
2023-01-18T12:52:44.611Z,98078.28
2023-01-18T12:53:53.777Z,98082.78
2023-01-18T12:55:00.134Z,98079.16
2023-01-18T12:56:10.389Z,98099.28
2023-01-18T12:57:15.025Z,98040.94
2023-01-18T12:58:22.470Z,98089.38
2023-01-18T12:59:30.624Z,98081.31
2023-01-18T13:00:44.081Z,98081.53
2023-01-18T13:02:05.744Z,98086.03
2023-01-18T13:03:13.779Z,98034.59
2023-01-18T13:04:25.443Z,98081.06
2023-01-18T13:05:35.549Z,98103.13
2023-01-18T13:06:39.539Z,98093.28
2023-01-18T13:07:53.326Z,98090.16
2023-01-18T13:09:03.383Z,98050.81